createdAt,value
2022-08-13T00:00:11.946Z,99403.88
2022-08-13T00:01:23.328Z,99394.59
2022-08-13T00:02:29.593Z,99402.03
2022-08-13T00:04:00.164Z,99397.78
2022-08-13T00:05:41.753Z,99391.06
2022-08-13T00:06:35.831Z,99389.69
2022-08-13T00:07:45.174Z,99393.41
2022-08-13T00:08:50.237Z,99383.44
2022-08-13T00:09:55.422Z,99390.88
2022-08-13T00:11:00.224Z,99390.88
2022-08-13T00:12:24.354Z,99390.03
2022-08-13T00:13:43.357Z,99388.00
2022-08-13T00:14:48.433Z,99386.34
2022-08-13T00:15:56.718Z,99388.38
2022-08-13T00:17:02.330Z,99388.69
2022-08-13T00:18:12.060Z,99392.75
2022-08-13T00:19:28.248Z,99389.88
2022-08-13T00:20:52.100Z,99384.66
2022-08-13T00:22:29.523Z,99393.09
2022-08-13T00:23:52.782Z,99395.09
2022-08-13T00:24:54.181Z,99398.81
2022-08-13T00:25:59.632Z,99390.88
2022-08-13T00:27:03.521Z,99381.63
2022-08-13T00:28:07.630Z,99387.53
2022-08-13T00:29:14.589Z,99385.66
2022-08-13T00:30:26.479Z,99386.69
2022-08-13T00:31:36.118Z,99383.47
2022-08-13T00:32:40.320Z,99372.69
2022-08-13T00:33:48.765Z,99362.25
2022-08-13T00:34:53.443Z,99372.19
2022-08-13T00:35:58.463Z,99370.16
2022-08-13T00:37:06.586Z,99372.66
2022-08-13T00:38:15.580Z,99364.41
2022-08-13T00:39:21.099Z,99362.91
2022-08-13T00:40:32.223Z,99369.81
2022-08-13T00:41:58.485Z,99357.50
2022-08-13T00:43:06.448Z,99365.44
2022-08-13T00:44:14.533Z,99363.75
2022-08-13T00:45:20.785Z,99368.50
2022-08-13T00:46:26.311Z,99370.84
2022-08-13T00:47:51.848Z,99355.50
2022-08-13T00:48:56.415Z,99361.91
2022-08-13T00:50:02.153Z,99364.41
2022-08-13T00:51:07.608Z,99364.41
2022-08-13T00:52:11.892Z,99363.41
2022-08-13T00:53:23.666Z,99363.75
2022-08-13T00:54:29.269Z,99349.06
2022-08-13T00:55:33.783Z,99360.69
2022-08-13T00:56:38.045Z,99363.41
2022-08-13T00:57:53.213Z,99358.00
2022-08-13T00:59:01.428Z,99367.44
2022-08-13T01:00:14.701Z,99362.72
2022-08-13T01:01:28.317Z,99367.94
2022-08-13T01:02:56.649Z,99358.34
2022-08-13T01:04:11.278Z,99355.66
2022-08-13T01:05:16.804Z,99349.22
2022-08-13T01:06:24.378Z,99350.25
2022-08-13T01:07:47.993Z,99347.38
2022-08-13T01:08:59.245Z,99345.19
2022-08-13T01:10:17.396Z,99347.03
2022-08-13T01:11:25.885Z,99340.44
2022-08-13T01:12:30.279Z,99338.75
2022-08-13T01:13:37.436Z,99334.72
2022-08-13T01:14:44.375Z,99334.72
2022-08-13T01:15:52.281Z,99337.59
2022-08-13T01:16:57.123Z,99331.16
2022-08-13T01:18:01.850Z,99331.72
2022-08-13T01:19:10.795Z,99331.72
2022-08-13T01:20:33.241Z,99330.34
2022-08-13T01:21:43.940Z,99333.06
2022-08-13T01:22:54.243Z,99333.06
2022-08-13T01:24:02.524Z,99329.34
2022-08-13T01:25:08.055Z,99322.63
2022-08-13T01:26:20.195Z,99325.63
2022-08-13T01:27:27.748Z,99321.94
2022-08-13T01:28:42.476Z,99326.13
2022-08-13T01:29:50.908Z,99325.63
2022-08-13T01:30:58.280Z,99313.81
2022-08-13T01:32:02.527Z,99330.03
2022-08-13T01:33:09.531Z,99322.91
2022-08-13T01:34:24.345Z,99311.81
2022-08-13T01:35:30.810Z,99322.25
2022-08-13T01:36:55.528Z,99322.63
2022-08-13T01:38:04.340Z,99310.13
2022-08-13T01:39:18.056Z,99310.44
2022-08-13T01:40:25.947Z,99315.84
2022-08-13T01:41:30.174Z,99323.59
2022-08-13T01:42:48.946Z,99317.19
2022-08-13T01:44:17.041Z,99304.84
2022-08-13T01:45:22.866Z,99316.63
2022-08-13T01:46:48.842Z,99317.00
2022-08-13T01:48:13.279Z,99316.00
2022-08-13T01:49:43.830Z,99326.97
2022-08-13T01:50:52.272Z,99307.25
2022-08-13T01:51:56.480Z,99320.72
2022-08-13T01:53:10.289Z,99317.38
2022-08-13T01:54:39.242Z,99322.59
2022-08-13T01:56:15.319Z,99319.88
2022-08-13T01:57:22.196Z,99321.38
2022-08-13T01:59:00.977Z,99323.25
2022-08-13T02:00:27.457Z,99320.34
2022-08-13T02:01:42.002Z,99321.91
2022-08-13T02:02:47.861Z,99317.47
2022-08-13T02:03:59.411Z,99307.56
2022-08-13T02:05:04.756Z,99313.78
2022-08-13T02:06:23.007Z,99314.97
2022-08-13T02:08:02.394Z,99308.72
2022-08-13T02:09:01.302Z,99316.13
2022-08-13T02:10:05.910Z,99307.84
2022-08-13T02:11:09.983Z,99302.97
2022-08-13T02:12:33.007Z,99305.34
2022-08-13T02:13:41.108Z,99311.09
2022-08-13T02:14:46.426Z,99310.41
2022-08-13T02:15:51.907Z,99299.31
2022-08-13T02:16:56.853Z,99303.97
2022-08-13T02:18:05.109Z,99303.13
2022-08-13T02:19:19.733Z,99294.03
2022-08-13T02:20:37.025Z,99301.28
2022-08-13T02:21:45.737Z,99301.13
2022-08-13T02:22:51.538Z,99298.44
2022-08-13T02:24:03.007Z,99306.34
2022-08-13T02:25:12.685Z,99304.97
2022-08-13T02:26:20.421Z,99308.69
2022-08-13T02:27:30.472Z,99299.59
2022-08-13T02:28:42.206Z,99308.22
2022-08-13T02:29:46.360Z,99313.44
2022-08-13T02:30:55.345Z,99308.03
2022-08-13T02:32:05.460Z,99308.03
2022-08-13T02:33:21.402Z,99310.53
2022-08-13T02:34:25.707Z,99305.97
2022-08-13T02:35:46.633Z,99311.38
2022-08-13T02:37:01.128Z,99305.84
2022-08-13T02:38:29.883Z,99308.34
2022-08-13T02:39:43.079Z,99312.72
2022-08-13T02:41:15.141Z,99313.75
2022-08-13T02:42:23.482Z,99311.75
2022-08-13T02:43:29.055Z,99312.78
2022-08-13T02:44:34.714Z,99320.03
2022-08-13T02:45:43.923Z,99303.31
2022-08-13T02:46:49.566Z,99309.75
2022-08-13T02:47:56.636Z,99309.09
2022-08-13T02:49:04.144Z,99298.28
2022-08-13T02:51:26.936Z,99302.47
2022-08-13T02:52:58.005Z,99302.28
2022-08-13T02:54:03.117Z,99289.34
2022-08-13T02:55:08.834Z,99301.97
2022-08-13T02:56:17.993Z,99306.34
2022-08-13T02:57:23.651Z,99307.00
2022-08-13T02:58:27.918Z,99305.84
2022-08-13T03:00:02.341Z,99302.94
2022-08-13T03:00:58.689Z,99299.03
2022-08-13T03:02:06.045Z,99301.75
2022-08-13T03:03:11.799Z,99297.84
2022-08-13T03:04:16.391Z,99303.44
2022-08-13T03:05:22.578Z,99286.41
2022-08-13T03:06:33.950Z,99299.56
2022-08-13T03:07:51.166Z,99296.53
2022-08-13T03:08:57.327Z,99300.72
2022-08-13T03:10:04.548Z,99288.91
2022-08-13T03:11:10.302Z,99290.75
2022-08-13T03:12:17.449Z,99283.03
2022-08-13T03:13:27.530Z,99278.28
2022-08-13T03:14:35.600Z,99280.78
2022-08-13T03:15:54.618Z,99283.69
2022-08-13T03:17:05.231Z,99272.53
2022-08-13T03:18:26.221Z,99278.59
2022-08-13T03:19:30.257Z,99277.56
2022-08-13T03:20:42.098Z,99284.66
2022-08-13T03:21:47.345Z,99273.66
2022-08-13T03:22:59.647Z,99273.66
2022-08-13T03:24:07.046Z,99279.25
2022-08-13T03:25:10.891Z,99269.09
2022-08-13T03:26:14.996Z,99272.81
2022-08-13T03:27:19.011Z,99273.50
2022-08-13T03:28:24.761Z,99262.22
2022-08-13T03:30:02.879Z,99270.50
2022-08-13T03:30:55.906Z,99271.50
2022-08-13T03:31:59.867Z,99258.91
2022-08-13T03:33:18.535Z,99260.38
2022-08-13T03:34:24.183Z,99260.56
2022-08-13T03:35:42.720Z,99262.91
2022-08-13T03:36:47.949Z,99264.59
2022-08-13T03:38:01.300Z,99269.84
2022-08-13T03:39:06.489Z,99268.63
2022-08-13T03:40:15.110Z,99263.22
2022-08-13T03:41:21.698Z,99270.50
2022-08-13T03:42:30.526Z,99268.81
2022-08-13T03:43:53.968Z,99271.34
2022-08-13T03:44:58.417Z,99269.28
2022-08-13T03:46:02.353Z,99272.81
2022-08-13T03:47:31.680Z,99282.59
2022-08-13T03:48:30.934Z,99272.50
2022-08-13T03:49:37.944Z,99281.44
2022-08-13T03:50:47.347Z,99280.59
2022-08-13T03:51:59.666Z,99277.06
2022-08-13T03:53:07.394Z,99279.25
2022-08-13T03:54:26.202Z,99274.41
2022-08-13T03:55:31.767Z,99283.31
2022-08-13T03:56:56.670Z,99278.91
2022-08-13T03:58:14.556Z,99284.31
2022-08-13T03:59:19.049Z,99282.59
2022-08-13T04:00:23.652Z,99277.09
2022-08-13T04:01:31.062Z,99283.34
2022-08-13T04:02:41.064Z,99281.31
2022-08-13T04:03:47.463Z,99284.84
2022-08-13T04:04:52.758Z,99281.94
2022-08-13T04:06:01.847Z,99283.81
2022-08-13T04:07:06.082Z,99286.34
2022-08-13T04:08:14.734Z,99280.94
2022-08-13T04:09:19.000Z,99279.63
2022-08-13T04:10:27.534Z,99286.50
2022-08-13T04:11:31.395Z,99291.25
2022-08-13T04:12:40.042Z,99286.88
2022-08-13T04:14:01.739Z,99290.75
2022-08-13T04:15:09.265Z,99286.88
2022-08-13T04:16:30.417Z,99288.06
2022-08-13T04:17:38.454Z,99284.34
2022-08-13T04:18:44.565Z,99281.63
2022-08-13T04:19:48.726Z,99277.94
2022-08-13T04:20:56.157Z,99275.38
2022-08-13T04:22:03.305Z,99287.41
2022-08-13T04:23:13.433Z,99282.84
2022-08-13T04:24:21.133Z,99282.84
2022-08-13T04:25:39.848Z,99284.69
2022-08-13T04:26:48.016Z,99288.59
2022-08-13T04:27:51.883Z,99281.34
2022-08-13T04:28:56.436Z,99290.28
2022-08-13T04:30:03.782Z,99288.44
2022-08-13T04:31:08.011Z,99287.41
2022-08-13T04:32:25.839Z,99280.13
2022-08-13T04:34:31.378Z,99275.25
2022-08-13T04:34:56.683Z,99278.28
2022-08-13T04:36:05.052Z,99282.00
2022-08-13T04:37:19.955Z,99266.16
2022-08-13T04:38:25.877Z,99282.38
2022-08-13T04:40:08.975Z,99275.25
2022-08-13T04:40:57.559Z,99284.03
2022-08-13T04:42:02.644Z,99273.56
2022-08-13T04:43:08.212Z,99278.47
2022-08-13T04:44:13.114Z,99283.69
2022-08-13T04:45:23.575Z,99288.75
2022-08-13T04:46:29.421Z,99281.31
2022-08-13T04:47:33.430Z,99279.44
2022-08-13T04:48:37.589Z,99280.94
2022-08-13T04:49:50.881Z,99274.50
2022-08-13T04:50:55.110Z,99278.06
2022-08-13T04:51:59.099Z,99281.78
2022-08-13T04:53:10.483Z,99278.06
2022-08-13T04:54:14.396Z,99276.88
2022-08-13T04:55:19.978Z,99286.66
2022-08-13T04:56:24.119Z,99283.97
2022-08-13T04:57:55.722Z,99283.97
2022-08-13T04:58:54.164Z,99282.28
2022-08-13T04:59:58.263Z,99287.69
2022-08-13T05:01:53.852Z,99281.94
2022-08-13T05:02:45.079Z,99279.91
2022-08-13T05:03:55.230Z,99280.28
2022-08-13T05:04:59.644Z,99286.50
2022-08-13T05:06:03.549Z,99284.19
2022-08-13T05:07:07.465Z,99287.22
2022-08-13T05:08:13.524Z,99284.03
2022-08-13T05:09:18.891Z,99285.34
2022-08-13T05:10:30.325Z,99289.09
2022-08-13T05:11:36.929Z,99279.94
2022-08-13T05:12:46.622Z,99283.50
2022-08-13T05:13:56.500Z,99287.91
2022-08-13T05:15:01.053Z,99279.81
2022-08-13T05:16:09.441Z,99282.66
2022-08-13T05:17:17.411Z,99277.44
2022-08-13T05:18:28.270Z,99277.63
2022-08-13T05:19:39.238Z,99286.56
2022-08-13T05:20:43.529Z,99284.88
2022-08-13T05:21:59.201Z,99282.38
2022-08-13T05:26:06.976Z,99283.19
2022-08-13T05:26:09.278Z,99270.22
2022-08-13T05:26:17.857Z,99290.09
2022-08-13T05:27:24.773Z,99279.28
2022-08-13T05:28:32.266Z,99283.19
2022-08-13T05:30:03.643Z,99285.06
2022-08-13T05:31:03.369Z,99287.06
2022-08-13T05:32:09.921Z,99282.69
2022-08-13T05:33:34.026Z,99251.56
2022-08-13T05:34:49.863Z,99280.84
2022-08-13T05:38:10.491Z,99283.06
2022-08-13T05:38:15.593Z,99281.03
2022-08-13T05:38:51.334Z,99285.56
2022-08-13T05:39:55.406Z,99282.03
2022-08-13T05:41:08.337Z,99271.41
2022-08-13T05:42:12.479Z,99276.63
2022-08-13T05:43:21.104Z,99276.97
2022-08-13T05:44:25.894Z,99274.63
2022-08-13T05:45:30.508Z,99272.59
2022-08-13T05:46:34.284Z,99277.16
2022-08-13T05:47:39.393Z,99275.47
2022-08-13T05:48:58.952Z,99277.16
2022-08-13T05:50:11.408Z,99283.06
2022-08-13T05:51:15.607Z,99264.19
2022-08-13T05:52:36.921Z,99278.34
2022-08-13T05:56:04.048Z,99281.91
2022-08-13T05:56:10.605Z,99277.16
2022-08-13T05:56:38.372Z,99266.22
2022-08-13T05:57:42.392Z,99273.94
2022-08-13T05:58:49.473Z,99277.13
2022-08-13T06:00:13.215Z,99279.66
2022-08-13T06:01:40.319Z,99274.72
2022-08-13T06:03:15.138Z,99265.19
2022-08-13T06:04:37.091Z,99275.09
2022-08-13T06:05:46.320Z,99275.44
2022-08-13T06:06:52.157Z,99283.53
2022-08-13T06:07:58.988Z,99278.13
2022-08-13T06:09:08.884Z,99272.53
2022-08-13T06:10:16.274Z,99273.25
2022-08-13T06:12:25.708Z,99269.50
2022-08-13T06:12:58.782Z,99263.28
2022-08-13T06:14:05.524Z,99273.91
2022-08-13T06:15:13.239Z,99272.41
2022-08-13T06:16:22.764Z,99272.41
2022-08-13T06:17:42.953Z,99268.50
2022-08-13T06:18:52.816Z,99258.38
2022-08-13T06:20:10.428Z,99267.00
2022-08-13T06:21:33.090Z,99262.63
2022-08-13T06:22:44.226Z,99263.09
2022-08-13T06:23:50.106Z,99263.28
2022-08-13T06:24:56.266Z,99267.47
2022-08-13T06:26:02.122Z,99266.44
2022-08-13T06:27:15.044Z,99263.75
2022-08-13T06:28:29.922Z,99269.66
2022-08-13T06:29:44.030Z,99272.16
2022-08-13T06:30:55.318Z,99263.88
2022-08-13T06:32:04.480Z,99259.16
2022-08-13T06:34:08.745Z,99257.78
2022-08-13T06:34:37.079Z,99267.88
2022-08-13T06:35:47.625Z,99263.78
2022-08-13T06:36:55.152Z,99255.88
2022-08-13T06:38:00.265Z,99244.09
2022-08-13T06:39:07.015Z,99261.78
2022-08-13T06:40:35.945Z,99255.16
2022-08-13T06:41:47.531Z,99259.34
2022-08-13T06:43:07.477Z,99254.81
2022-08-13T06:44:13.151Z,99243.06
2022-08-13T06:45:21.665Z,99262.59
2022-08-13T06:46:31.438Z,99262.59
2022-08-13T06:47:38.668Z,99253.16
2022-08-13T06:48:50.709Z,99257.53
2022-08-13T06:50:00.662Z,99255.03
2022-08-13T06:51:09.315Z,99256.88
2022-08-13T06:52:17.378Z,99245.75
2022-08-13T06:54:21.256Z,99249.81
2022-08-13T06:54:45.850Z,99252.13
2022-08-13T06:56:05.647Z,99249.44
2022-08-13T06:57:22.049Z,99249.09
2022-08-13T06:58:29.437Z,99256.19
2022-08-13T07:00:05.149Z,99249.75
2022-08-13T07:01:03.623Z,99253.09
2022-08-13T07:02:12.275Z,99257.66
2022-08-13T07:03:21.346Z,99259.34
2022-08-13T07:04:28.754Z,99256.84
2022-08-13T07:05:40.047Z,99254.63
2022-08-13T07:06:48.673Z,99252.75
2022-08-13T07:07:52.761Z,99251.75
2022-08-13T07:09:02.422Z,99237.91
2022-08-13T07:10:07.286Z,99255.81
2022-08-13T07:11:24.580Z,99254.59
2022-08-13T07:12:43.366Z,99266.25
2022-08-13T07:13:51.546Z,99249.19
2022-08-13T07:14:59.098Z,99256.66
2022-08-13T07:16:04.501Z,99261.22
2022-08-13T07:17:09.515Z,99253.22
2022-08-13T07:18:14.440Z,99257.81
2022-08-13T07:19:18.454Z,99262.91
2022-08-13T07:20:25.099Z,99261.22
2022-08-13T07:21:34.391Z,99265.41
2022-08-13T07:24:38.760Z,99262.91
2022-08-13T07:24:40.522Z,99255.09
2022-08-13T07:25:56.333Z,99264.22
2022-08-13T07:27:10.776Z,99256.97
2022-08-13T07:28:26.271Z,99256.13
2022-08-13T07:29:52.890Z,99261.53
2022-08-13T07:30:58.520Z,99257.16
2022-08-13T07:32:07.807Z,99264.22
2022-08-13T07:33:14.718Z,99257.81
2022-08-13T07:34:22.048Z,99259.50
2022-08-13T07:35:51.573Z,99261.34
2022-08-13T07:36:59.729Z,99268.31
2022-08-13T07:38:05.047Z,99266.25
2022-08-13T07:39:24.569Z,99258.16
2022-08-13T07:40:30.624Z,99269.97
2022-08-13T07:42:01.671Z,99247.88
2022-08-13T07:43:11.887Z,99259.50
2022-08-13T07:44:26.417Z,99264.22
2022-08-13T07:46:26.243Z,99261.91
2022-08-13T07:46:59.966Z,99269.16
2022-08-13T07:48:27.611Z,99263.75
2022-08-13T07:49:44.344Z,99263.25
2022-08-13T07:51:03.200Z,99261.59
2022-08-13T07:52:10.989Z,99259.72
2022-08-13T07:53:15.993Z,99259.91
2022-08-13T07:54:20.438Z,99266.34
2022-08-13T07:56:06.922Z,99261.28
2022-08-13T07:57:59.867Z,99269.03
2022-08-13T07:59:22.150Z,99265.00
2022-08-13T08:00:30.408Z,99272.91
2022-08-13T08:02:19.403Z,99263.31
2022-08-13T08:03:10.495Z,99271.59
2022-08-13T08:04:29.563Z,99264.34
2022-08-13T08:05:40.149Z,99269.09
2022-08-13T08:06:49.896Z,99265.38
2022-08-13T08:08:07.214Z,99252.88
2022-08-13T08:09:30.451Z,99260.63
2022-08-13T08:10:42.953Z,99254.56
2022-08-13T08:12:08.251Z,99258.38
2022-08-13T08:13:21.153Z,99262.41
2022-08-13T08:14:30.768Z,99259.72
2022-08-13T08:16:02.107Z,99260.56
2022-08-13T08:18:12.905Z,99260.22
2022-08-13T08:18:57.156Z,99256.84
2022-08-13T08:20:13.739Z,99256.50
2022-08-13T08:21:51.322Z,99250.91
2022-08-13T08:22:51.587Z,99242.44
2022-08-13T08:24:07.360Z,99238.72
2022-08-13T08:25:26.067Z,99242.41
2022-08-13T08:26:36.249Z,99245.41
2022-08-13T08:27:52.713Z,99243.66
2022-08-13T08:29:10.844Z,99246.31
2022-08-13T08:30:20.033Z,99246.78
2022-08-13T08:31:58.398Z,99245.59
2022-08-13T08:32:55.598Z,99235.97
2022-08-13T08:34:05.104Z,99250.28
2022-08-13T08:35:10.714Z,99245.88
2022-08-13T08:36:21.094Z,99241.50
2022-08-13T08:37:59.270Z,99246.72
2022-08-13T08:39:38.206Z,99243.72
2022-08-13T08:41:08.509Z,99237.53
2022-08-13T08:42:15.401Z,99245.28
2022-08-13T08:43:22.368Z,99230.53
2022-08-13T08:44:30.772Z,99240.63
2022-08-13T08:46:10.844Z,99236.06
2022-08-13T08:47:08.506Z,99227.25
2022-08-13T08:48:17.844Z,99207.88
2022-08-13T08:49:35.065Z,99229.34
2022-08-13T08:50:40.096Z,99229.28
2022-08-13T08:51:45.928Z,99222.97
2022-08-13T08:53:16.446Z,99218.50
2022-08-13T08:54:42.882Z,99225.78
2022-08-13T08:55:52.299Z,99224.06
2022-08-13T08:56:58.484Z,99221.28
2022-08-13T08:58:33.361Z,99221.19
2022-08-13T08:59:43.399Z,99211.38
2022-08-13T09:01:00.647Z,99213.25
2022-08-13T09:02:20.100Z,99216.72
2022-08-13T09:03:28.455Z,99211.34
2022-08-13T09:04:53.094Z,99206.84
2022-08-13T09:06:06.825Z,99214.53
2022-08-13T09:07:21.840Z,99214.97
2022-08-13T09:08:28.146Z,99205.84
2022-08-13T09:09:32.449Z,99204.13
2022-08-13T09:10:38.519Z,99202.47
2022-08-13T09:11:45.811Z,99199.19
2022-08-13T09:12:57.901Z,99206.75
2022-08-13T09:14:09.922Z,99204.69
2022-08-13T09:15:19.114Z,99195.72
2022-08-13T09:16:25.013Z,99207.59
2022-08-13T09:17:40.231Z,99195.44
2022-08-13T09:18:46.192Z,99206.94
2022-08-13T09:19:57.254Z,99201.91
2022-08-13T09:21:25.934Z,99190.53
2022-08-13T09:22:27.314Z,99199.97
2022-08-13T09:24:17.040Z,99202.88
2022-08-13T09:25:00.777Z,99201.50
2022-08-13T09:26:06.911Z,99206.69
2022-08-13T09:27:16.819Z,99205.66
2022-08-13T09:28:33.549Z,99206.81
2022-08-13T09:29:40.217Z,99206.28
2022-08-13T09:30:55.879Z,99207.09
2022-08-13T09:32:02.041Z,99209.09
2022-08-13T09:33:06.429Z,99195.88
2022-08-13T09:34:14.365Z,99205.81
2022-08-13T09:35:18.516Z,99204.47
2022-08-13T09:36:26.314Z,99207.44
2022-08-13T09:37:54.918Z,99197.88
2022-08-13T09:38:57.460Z,99193.31
2022-08-13T09:40:12.307Z,99197.63
2022-08-13T09:41:52.481Z,99209.13
2022-08-13T09:43:10.319Z,99209.13
2022-08-13T09:44:18.790Z,99198.28
2022-08-13T09:45:25.460Z,99200.97
2022-08-13T09:46:35.812Z,99198.66
2022-08-13T09:48:34.942Z,99184.34
2022-08-13T09:49:05.201Z,99186.06
2022-08-13T09:50:11.327Z,99197.19
2022-08-13T09:52:02.374Z,99199.69
2022-08-13T09:52:39.970Z,99191.53
2022-08-13T09:53:51.629Z,99173.34
2022-08-13T09:54:59.110Z,99187.41
2022-08-13T09:56:04.493Z,99186.38
2022-08-13T09:57:09.154Z,99186.38
2022-08-13T09:58:18.635Z,99187.69
2022-08-13T09:59:40.314Z,99181.00
2022-08-13T10:00:51.819Z,99187.47
2022-08-13T10:01:58.354Z,99175.72
2022-08-13T10:03:08.134Z,99183.25
2022-08-13T10:04:13.845Z,99181.16
2022-08-13T10:05:20.458Z,99180.53
2022-08-13T10:06:30.824Z,99181.09
2022-08-13T10:07:47.249Z,99174.22
2022-08-13T10:08:52.780Z,99166.63
2022-08-13T10:10:31.325Z,99168.44
2022-08-13T10:11:23.251Z,99168.44
2022-08-13T10:12:47.360Z,99167.53
2022-08-13T10:13:51.797Z,99152.44
2022-08-13T10:14:57.528Z,99168.94
2022-08-13T10:16:02.349Z,99162.88
2022-08-13T10:17:06.556Z,99166.38
2022-08-13T10:18:11.274Z,99173.66
2022-08-13T10:19:18.655Z,99169.06
2022-08-13T10:20:46.842Z,99168.03
2022-08-13T10:21:51.698Z,99169.97
2022-08-13T10:23:02.400Z,99158.22
2022-08-13T10:24:07.264Z,99166.91
2022-08-13T10:25:11.752Z,99168.63
2022-08-13T10:26:20.037Z,99163.25
2022-08-13T10:27:24.535Z,99166.22
2022-08-13T10:28:50.644Z,99167.81
2022-08-13T10:30:08.873Z,99165.50
2022-08-13T10:31:48.740Z,99162.44
2022-08-13T10:32:43.254Z,99152.47
2022-08-13T10:33:57.989Z,99159.19
2022-08-13T10:35:02.807Z,99153.81
2022-08-13T10:36:10.434Z,99148.41
2022-08-13T10:37:16.119Z,99144.69
2022-08-13T10:38:29.916Z,99150.53
2022-08-13T10:39:44.163Z,99147.41
2022-08-13T10:41:07.803Z,99141.34
2022-08-13T10:42:14.757Z,99140.31
2022-08-13T10:43:24.761Z,99148.41
2022-08-13T10:44:31.572Z,99130.41
2022-08-13T10:45:36.171Z,99147.50
2022-08-13T10:46:43.224Z,99139.16
2022-08-13T10:48:00.884Z,99142.91
2022-08-13T10:49:05.784Z,99140.47
2022-08-13T10:50:10.126Z,99136.28
2022-08-13T10:51:14.298Z,99130.66
2022-08-13T10:52:22.642Z,99134.25
2022-08-13T10:53:45.636Z,99129.44
2022-08-13T10:54:50.526Z,99120.25
2022-08-13T10:55:54.471Z,99120.25
2022-08-13T10:57:00.307Z,99133.66
2022-08-13T10:58:42.570Z,99134.25
2022-08-13T10:59:38.934Z,99130.69
2022-08-13T11:00:48.987Z,99130.69
2022-08-13T11:01:55.769Z,99125.22
2022-08-13T11:03:01.844Z,99128.41
2022-08-13T11:04:06.781Z,99125.06
2022-08-13T11:05:13.109Z,99127.09
2022-08-13T11:06:17.618Z,99127.72
2022-08-13T11:07:22.681Z,99124.56
2022-08-13T11:08:32.053Z,99128.53
2022-08-13T11:09:40.726Z,99122.25
2022-08-13T11:11:30.081Z,99113.03
2022-08-13T11:12:12.463Z,99126.63
2022-08-13T11:13:26.253Z,99121.59
2022-08-13T11:14:50.237Z,99120.34
2022-08-13T11:15:58.814Z,99120.34
2022-08-13T11:17:09.704Z,99121.78
2022-08-13T11:18:21.076Z,99131.03
2022-08-13T11:19:48.628Z,99119.19
2022-08-13T11:22:21.046Z,99116.09
2022-08-13T11:22:34.836Z,99120.16
2022-08-13T11:23:38.891Z,99123.31
2022-08-13T11:24:43.665Z,99118.34
2022-08-13T11:26:22.808Z,99130.28
2022-08-13T11:27:19.773Z,99123.19
2022-08-13T11:28:25.037Z,99121.13
2022-08-13T11:29:29.107Z,99126.56
2022-08-13T11:30:41.959Z,99122.16
2022-08-13T11:31:59.531Z,99119.66
2022-08-13T11:33:13.199Z,99108.78
2022-08-13T11:34:18.082Z,99120.09
2022-08-13T11:35:22.519Z,99121.16
2022-08-13T11:36:28.054Z,99123.41
2022-08-13T11:37:40.879Z,99116.50
2022-08-13T11:38:46.478Z,99126.09
2022-08-13T11:39:57.173Z,99123.56
2022-08-13T11:41:19.194Z,99127.53
2022-08-13T11:42:25.609Z,99130.63
2022-08-13T11:43:52.321Z,99128.97
2022-08-13T11:44:56.446Z,99131.28
2022-08-13T11:46:00.633Z,99135.47
2022-08-13T11:47:09.940Z,99131.50
2022-08-13T11:48:29.899Z,99112.28
2022-08-13T11:49:42.292Z,99133.88
2022-08-13T11:50:47.444Z,99127.38
2022-08-13T11:51:53.094Z,99132.84
2022-08-13T11:52:57.142Z,99132.63
2022-08-13T11:54:29.490Z,99126.13
2022-08-13T11:55:29.386Z,99125.75
2022-08-13T11:56:33.672Z,99107.75
2022-08-13T11:57:45.850Z,99124.72
2022-08-13T11:58:58.446Z,99125.97
2022-08-13T12:00:06.359Z,99115.13
2022-08-13T12:01:11.983Z,99119.97
2022-08-13T12:02:16.322Z,99124.38
2022-08-13T12:03:23.013Z,99129.38
2022-08-13T12:04:27.999Z,99129.38
2022-08-13T12:05:32.088Z,99124.56
2022-08-13T12:06:36.113Z,99125.44
2022-08-13T12:07:45.286Z,99128.34
2022-08-13T12:08:52.333Z,99127.28
2022-08-13T12:10:38.940Z,99119.78
2022-08-13T12:12:08.267Z,99113.09
2022-08-13T12:13:07.263Z,99114.19
2022-08-13T12:14:12.573Z,99118.16
2022-08-13T12:15:19.128Z,99100.19
2022-08-13T12:16:41.484Z,99109.63
2022-08-13T12:17:52.057Z,99115.06
2022-08-13T12:19:20.709Z,99114.44
2022-08-13T12:20:28.644Z,99100.44
2022-08-13T12:21:34.645Z,99093.50
2022-08-13T12:22:44.758Z,99097.91
2022-08-13T12:24:01.787Z,99106.06
2022-08-13T12:25:32.803Z,99104.59
2022-08-13T12:26:31.509Z,99090.56
2022-08-13T12:27:42.579Z,99100.00
2022-08-13T12:28:54.192Z,99095.59
2022-08-13T12:29:58.238Z,99094.97
2022-08-13T12:31:11.574Z,99093.94
2022-08-13T12:32:18.711Z,99087.44
2022-08-13T12:33:23.644Z,99094.56
2022-08-13T12:34:31.138Z,99086.19
2022-08-13T12:35:57.602Z,99088.69
2022-08-13T12:37:01.393Z,99094.16
2022-08-13T12:38:28.657Z,99091.00
2022-08-13T12:39:34.414Z,99094.75
2022-08-13T12:40:42.015Z,99085.56
2022-08-13T12:41:48.324Z,99089.75
2022-08-13T12:42:57.066Z,99083.66
2022-08-13T12:44:09.272Z,99082.19
2022-08-13T12:45:54.208Z,99092.88
2022-08-13T12:46:51.098Z,99072.13
2022-08-13T12:47:55.415Z,99091.03
2022-08-13T12:48:59.546Z,99079.50
2022-08-13T12:50:06.796Z,99089.75
2022-08-13T12:51:11.685Z,99083.25
2022-08-13T12:52:15.695Z,99092.47
2022-08-13T12:53:44.454Z,99085.75
2022-08-13T12:55:06.438Z,99083.88
2022-08-13T12:56:08.335Z,99085.97
2022-08-13T12:57:26.234Z,99088.69
2022-08-13T12:58:32.792Z,99082.22
2022-08-13T12:59:38.520Z,99088.09
2022-08-13T13:00:57.770Z,99087.00
2022-08-13T13:02:02.162Z,99082.00
2022-08-13T13:03:13.053Z,99075.31
2022-08-13T13:04:19.091Z,99073.22
2022-08-13T13:05:23.713Z,99079.91
2022-08-13T13:06:32.585Z,99089.13
2022-08-13T13:08:06.593Z,99082.84
2022-08-13T13:09:02.975Z,99079.91
2022-08-13T13:10:08.475Z,99084.50
2022-08-13T13:11:16.206Z,99075.72
2022-08-13T13:12:21.272Z,99096.22
2022-08-13T13:13:55.196Z,99092.19
2022-08-13T13:15:12.071Z,99100.72
2022-08-13T13:16:33.886Z,99086.03
2022-08-13T13:18:10.665Z,99090.81
2022-08-13T13:19:15.664Z,99086.19
2022-08-13T13:20:20.726Z,99094.94
2022-08-13T13:21:27.112Z,99093.59
2022-08-13T13:22:39.100Z,99089.59
2022-08-13T13:24:00.689Z,99084.13
2022-08-13T13:25:07.393Z,99077.78
2022-08-13T13:26:11.391Z,99088.06
2022-08-13T13:27:15.605Z,99085.94
2022-08-13T13:28:31.263Z,99091.53
2022-08-13T13:29:39.097Z,99082.94
2022-08-13T13:30:45.960Z,99086.00
2022-08-13T13:32:38.587Z,99084.97
2022-08-13T13:33:42.751Z,99060.44
2022-08-13T13:34:54.288Z,99076.78
2022-08-13T13:36:18.161Z,99081.78
2022-08-13T13:37:22.790Z,99081.50
2022-08-13T13:38:28.039Z,99090.81
2022-08-13T13:39:43.496Z,99074.94
2022-08-13T13:40:52.085Z,99084.56
2022-08-13T13:41:56.120Z,99078.94
2022-08-13T13:43:23.144Z,99068.47
2022-08-13T13:44:38.010Z,99078.78
2022-08-13T13:45:43.494Z,99084.84
2022-08-13T13:46:49.518Z,99070.03
2022-08-13T13:47:55.372Z,99070.53
2022-08-13T13:48:59.337Z,99079.50
2022-08-13T13:50:13.857Z,99085.97
2022-08-13T13:51:21.244Z,99085.13
2022-08-13T13:52:26.075Z,99080.75
2022-08-13T13:54:09.466Z,99073.16
2022-08-13T13:54:59.088Z,99073.66
2022-08-13T13:56:09.115Z,99061.22
2022-08-13T13:57:13.350Z,99081.13
2022-08-13T13:58:49.530Z,99075.69
2022-08-13T13:59:57.111Z,99076.56
2022-08-13T14:01:03.003Z,99076.91
2022-08-13T14:02:10.489Z,99071.69
2022-08-13T14:03:24.329Z,99074.97
2022-08-13T14:04:32.924Z,99073.78
2022-08-13T14:05:57.396Z,99071.22